sensor_id;sensor_type;location;lat;lon;timestamp;temperature;humidity
11577;DHT22;5844;51.496;6.788;2023-12-14T00:01:37;8.20;48.50
11577;DHT22;5844;51.496;6.788;2023-12-14T00:04:05;8.20;45.20
11577;DHT22;5844;51.496;6.788;2023-12-14T00:06:30;8.10;44.10
11577;DHT22;5844;51.496;6.788;2023-12-14T00:08:56;8.10;43.90
11577;DHT22;5844;51.496;6.788;2023-12-14T00:11:22;8.10;43.00
11577;DHT22;5844;51.496;6.788;2023-12-14T00:13:47;8.10;43.50
11577;DHT22;5844;51.496;6.788;2023-12-14T00:16:13;8.10;44.10
11577;DHT22;5844;51.496;6.788;2023-12-14T00:18:39;8.20;44.00
11577;DHT22;5844;51.496;6.788;2023-12-14T00:21:04;8.10;45.00
11577;DHT22;5844;51.496;6.788;2023-12-14T00:23:30;8.20;44.00
11577;DHT22;5844;51.496;6.788;2023-12-14T00:25:56;8.10;43.90
11577;DHT22;5844;51.496;6.788;2023-12-14T00:28:22;8.20;45.20
11577;DHT22;5844;51.496;6.788;2023-12-14T00:30:48;8.10;43.40
11577;DHT22;5844;51.496;6.788;2023-12-14T00:33:13;8.10;42.50
11577;DHT22;5844;51.496;6.788;2023-12-14T00:35:39;8.00;39.00
11577;DHT22;5844;51.496;6.788;2023-12-14T00:38:04;8.00;39.30
11577;DHT22;5844;51.496;6.788;2023-12-14T00:40:30;8.10;37.90
11577;DHT22;5844;51.496;6.788;2023-12-14T00:42:56;8.00;36.50
11577;DHT22;5844;51.496;6.788;2023-12-14T00:45:21;8.00;36.30
11577;DHT22;5844;51.496;6.788;2023-12-14T00:47:47;8.10;34.50
11577;DHT22;5844;51.496;6.788;2023-12-14T00:50:12;7.90;34.20
11577;DHT22;5844;51.496;6.788;2023-12-14T00:52:38;7.90;32.90
11577;DHT22;5844;51.496;6.788;2023-12-14T00:55:04;7.90;30.90
11577;DHT22;5844;51.496;6.788;2023-12-14T00:57:30;7.90;31.10
11577;DHT22;5844;51.496;6.788;2023-12-14T00:59:55;7.80;31.20
11577;DHT22;5844;51.496;6.788;2023-12-14T01:02:21;7.80;29.40
11577;DHT22;5844;51.496;6.788;2023-12-14T01:04:47;7.70;28.90
11577;DHT22;5844;51.496;6.788;2023-12-14T01:07:12;7.70;29.30
11577;DHT22;5844;51.496;6.788;2023-12-14T01:09:38;7.80;28.40
11577;DHT22;5844;51.496;6.788;2023-12-14T01:12:04;7.70;28.00
11577;DHT22;5844;51.496;6.788;2023-12-14T01:14:30;7.70;27.70
11577;DHT22;5844;51.496;6.788;2023-12-14T01:16:55;7.70;26.50
11577;DHT22;5844;51.496;6.788;2023-12-14T01:19:21;7.70;26.50
11577;DHT22;5844;51.496;6.788;2023-12-14T01:21:47;7.70;26.10
11577;DHT22;5844;51.496;6.788;2023-12-14T01:24:12;7.70;25.60
11577;DHT22;5844;51.496;6.788;2023-12-14T01:26:38;7.60;25.40
11577;DHT22;5844;51.496;6.788;2023-12-14T01:29:03;7.60;24.50
11577;DHT22;5844;51.496;6.788;2023-12-14T01:31:29;7.60;24.90
11577;DHT22;5844;51.496;6.788;2023-12-14T01:33:55;7.70;26.70
11577;DHT22;5844;51.496;6.788;2023-12-14T01:36:25;7.70;25.30
11577;DHT22;5844;51.496;6.788;2023-12-14T01:38:50;7.60;25.60
11577;DHT22;5844;51.496;6.788;2023-12-14T01:41:16;7.60;24.40
11577;DHT22;5844;51.496;6.788;2023-12-14T01:43:42;7.50;22.90
11577;DHT22;5844;51.496;6.788;2023-12-14T01:46:08;7.50;22.10
11577;DHT22;5844;51.496;6.788;2023-12-14T01:48:34;8.00;22.30
11577;DHT22;5844;51.496;6.788;2023-12-14T01:50:59;7.40;19.80
11577;DHT22;5844;51.496;6.788;2023-12-14T01:53:25;7.40;19.40
11577;DHT22;5844;51.496;6.788;2023-12-14T01:55:51;7.40;20.10
11577;DHT22;5844;51.496;6.788;2023-12-14T19:33:50;5.50;1.00
11577;DHT22;5844;51.496;6.788;2023-12-14T19:36:16;5.50;1.00
11577;DHT22;5844;51.496;6.788;2023-12-14T19:38:43;6.20;1.00
11577;DHT22;5844;51.496;6.788;2023-12-14T19:41:10;5.50;1.00
11577;DHT22;5844;51.496;6.788;2023-12-14T19:43:36;6.20;1.00
11577;DHT22;5844;51.496;6.788;2023-12-14T19:46:02;5.50;1.00
11577;DHT22;5844;51.496;6.788;2023-12-14T19:48:28;5.50;1.00
11577;DHT22;5844;51.496;6.788;2023-12-14T19:50:55;5.50;1.00
11577;DHT22;5844;51.496;6.788;2023-12-14T19:53:25;5.50;1.00
11577;DHT22;5844;51.496;6.788;2023-12-14T19:55:50;5.60;1.00
11577;DHT22;5844;51.496;6.788;2023-12-14T19:58:17;5.60;1.00
11577;DHT22;5844;51.496;6.788;2023-12-14T20:00:42;5.60;1.00
11577;DHT22;5844;51.496;6.788;2023-12-14T20:03:12;5.70;1.00
11577;DHT22;5844;51.496;6.788;2023-12-14T20:05:38;5.60;1.00
11577;DHT22;5844;51.496;6.788;2023-12-14T20:08:15;5.70;1.00
11577;DHT22;5844;51.496;6.788;2023-12-14T20:10:43;5.70;1.00
11577;DHT22;5844;51.496;6.788;2023-12-14T20:13:09;6.00;1.00
11577;DHT22;5844;51.496;6.788;2023-12-14T20:15:36;5.70;1.00
11577;DHT22;5844;51.496;6.788;2023-12-14T20:18:02;5.70;1.00
11577;DHT22;5844;51.496;6.788;2023-12-14T20:20:28;5.60;1.00
11577;DHT22;5844;51.496;6.788;2023-12-14T20:22:54;5.60;1.00
11577;DHT22;5844;51.496;6.788;2023-12-14T20:25:19;5.70;1.00
11577;DHT22;5844;51.496;6.788;2023-12-14T20:27:45;5.70;1.00
11577;DHT22;5844;51.496;6.788;2023-12-14T20:30:11;5.80;1.00
11577;DHT22;5844;51.496;6.788;2023-12-14T20:32:38;5.80;1.00
11577;DHT22;5844;51.496;6.788;2023-12-14T20:35:04;6.10;1.00
11577;DHT22;5844;51.496;6.788;2023-12-14T20:37:31;5.80;1.00
11577;DHT22;5844;51.496;6.788;2023-12-14T20:39:57;5.90;1.00
11577;DHT22;5844;51.496;6.788;2023-12-14T20:42:22;5.90;1.00
11577;DHT22;5844;51.496;6.788;2023-12-14T20:44:48;5.90;1.00
11577;DHT22;5844;51.496;6.788;2023-12-14T20:47:13;6.30;1.00
11577;DHT22;5844;51.496;6.788;2023-12-14T20:49:39;5.80;1.00
11577;DHT22;5844;51.496;6.788;2023-12-14T20:52:05;6.20;1.00
11577;DHT22;5844;51.496;6.788;2023-12-14T20:54:31;5.80;1.00
11577;DHT22;5844;51.496;6.788;2023-12-14T20:56:56;5.90;1.00
11577;DHT22;5844;51.496;6.788;2023-12-14T20:59:22;5.90;1.00
11577;DHT22;5844;51.496;6.788;2023-12-14T21:01:49;6.30;1.00
11577;DHT22;5844;51.496;6.788;2023-12-14T21:04:15;5.90;1.00
11577;DHT22;5844;51.496;6.788;2023-12-14T21:06:40;5.90;1.00
11577;DHT22;5844;51.496;6.788;2023-12-14T21:09:06;5.90;1.00
11577;DHT22;5844;51.496;6.788;2023-12-14T21:11:31;5.80;1.00
11577;DHT22;5844;51.496;6.788;2023-12-14T21:13:57;6.30;1.00
11577;DHT22;5844;51.496;6.788;2023-12-14T21:16:23;5.90;1.00
11577;DHT22;5844;51.496;6.788;2023-12-14T21:18:48;6.00;1.00
11577;DHT22;5844;51.496;6.788;2023-12-14T21:21:14;5.80;1.00
11577;DHT22;5844;51.496;6.788;2023-12-14T21:23:40;5.70;1.00
11577;DHT22;5844;51.496;6.788;2023-12-14T21:26:06;5.80;1.00
11577;DHT22;5844;51.496;6.788;2023-12-14T21:28:37;5.70;1.00
11577;DHT22;5844;51.496;6.788;2023-12-14T21:31:03;6.10;1.00
11577;DHT22;5844;51.496;6.788;2023-12-14T21:33:30;5.80;1.00
11577;DHT22;5844;51.496;6.788;2023-12-14T21:36:00;5.80;1.00
11577;DHT22;5844;51.496;6.788;2023-12-14T21:38:26;5.70;1.00
11577;DHT22;5844;51.496;6.788;2023-12-14T21:40:51;5.70;1.00
11577;DHT22;5844;51.496;6.788;2023-12-14T21:43:17;5.70;1.00
11577;DHT22;5844;51.496;6.788;2023-12-14T21:45:45;5.70;1.00
11577;DHT22;5844;51.496;6.788;2023-12-14T21:48:10;5.70;1.00
11577;DHT22;5844;51.496;6.788;2023-12-14T21:50:36;5.70;1.00
11577;DHT22;5844;51.496;6.788;2023-12-14T21:53:02;5.80;1.00
11577;DHT22;5844;51.496;6.788;2023-12-14T21:55:28;5.80;1.00
11577;DHT22;5844;51.496;6.788;2023-12-14T21:57:53;5.90;1.00
11577;DHT22;5844;51.496;6.788;2023-12-14T22:00:19;5.70;1.00
11577;DHT22;5844;51.496;6.788;2023-12-14T22:02:45;5.70;1.00
11577;DHT22;5844;51.496;6.788;2023-12-14T22:07:47;5.70;1.00
11577;DHT22;5844;51.496;6.788;2023-12-14T22:10:13;5.60;1.00
11577;DHT22;5844;51.496;6.788;2023-12-14T22:12:42;5.60;1.00
11577;DHT22;5844;51.496;6.788;2023-12-14T22:15:09;6.00;1.00
11577;DHT22;5844;51.496;6.788;2023-12-14T22:17:34;5.70;1.00
11577;DHT22;5844;51.496;6.788;2023-12-14T22:20:00;5.60;1.00
11577;DHT22;5844;51.496;6.788;2023-12-14T22:22:25;5.60;1.00
11577;DHT22;5844;51.496;6.788;2023-12-14T22:24:51;5.60;1.00
11577;DHT22;5844;51.496;6.788;2023-12-14T22:27:17;5.50;1.00
11577;DHT22;5844;51.496;6.788;2023-12-14T22:29:42;5.60;1.00
11577;DHT22;5844;51.496;6.788;2023-12-14T22:32:08;6.00;1.00
11577;DHT22;5844;51.496;6.788;2023-12-14T22:34:35;5.30;1.00
11577;DHT22;5844;51.496;6.788;2023-12-14T22:37:01;5.30;1.00
11577;DHT22;5844;51.496;6.788;2023-12-14T22:39:26;5.30;1.00
11577;DHT22;5844;51.496;6.788;2023-12-14T22:41:52;5.40;1.00
11577;DHT22;5844;51.496;6.788;2023-12-14T22:44:18;6.20;1.00
11577;DHT22;5844;51.496;6.788;2023-12-14T22:46:43;5.20;1.00
11577;DHT22;5844;51.496;6.788;2023-12-14T22:49:09;5.20;1.00
11577;DHT22;5844;51.496;6.788;2023-12-14T22:51:35;5.20;1.00
11577;DHT22;5844;51.496;6.788;2023-12-14T22:54:01;5.20;1.00
11577;DHT22;5844;51.496;6.788;2023-12-14T22:56:28;5.20;1.00
11577;DHT22;5844;51.496;6.788;2023-12-14T22:58:54;5.80;1.00
11577;DHT22;5844;51.496;6.788;2023-12-14T23:01:34;5.20;1.00
11577;DHT22;5844;51.496;6.788;2023-12-14T23:04:01;5.20;1.00
11577;DHT22;5844;51.496;6.788;2023-12-14T23:06:27;5.30;1.00
11577;DHT22;5844;51.496;6.788;2023-12-14T23:08:53;5.40;1.00
11577;DHT22;5844;51.496;6.788;2023-12-14T23:11:19;5.40;1.00
11577;DHT22;5844;51.496;6.788;2023-12-14T23:13:45;5.50;1.00
11577;DHT22;5844;51.496;6.788;2023-12-14T23:16:12;5.50;1.00
11577;DHT22;5844;51.496;6.788;2023-12-14T23:18:38;5.70;1.00
11577;DHT22;5844;51.496;6.788;2023-12-14T23:21:04;5.70;1.00
11577;DHT22;5844;51.496;6.788;2023-12-14T23:23:30;5.30;1.00
11577;DHT22;5844;51.496;6.788;2023-12-14T23:25:55;5.60;1.00
11577;DHT22;5844;51.496;6.788;2023-12-14T23:28:21;5.30;1.00
11577;DHT22;5844;51.496;6.788;2023-12-14T23:30:49;5.40;1.00
11577;DHT22;5844;51.496;6.788;2023-12-14T23:33:14;5.40;1.00
11577;DHT22;5844;51.496;6.788;2023-12-14T23:36:07;5.40;1.00
11577;DHT22;5844;51.496;6.788;2023-12-14T23:38:32;5.40;1.00
11577;DHT22;5844;51.496;6.788;2023-12-14T23:40:58;5.80;1.00
11577;DHT22;5844;51.496;6.788;2023-12-14T23:43:24;5.40;1.00
11577;DHT22;5844;51.496;6.788;2023-12-14T23:45:49;5.40;1.00
11577;DHT22;5844;51.496;6.788;2023-12-14T23:48:15;5.40;1.00
11577;DHT22;5844;51.496;6.788;2023-12-14T23:50:41;5.40;1.00
11577;DHT22;5844;51.496;6.788;2023-12-14T23:53:06;5.50;1.00
11577;DHT22;5844;51.496;6.788;2023-12-14T23:55:32;6.00;1.00
11577;DHT22;5844;51.496;6.788;2023-12-14T23:57:57;5.50;1.00
